Disclaimer

Please do not use the information listed here in-flight or in-navigation, as they are not provided to us by the airports but are provided by volunteers, so they might be outdated.

Search


Regions


Airport information page

Radio informations:
TRANSIT - 131.7 MHz
Approach (APP) - 124.7 MHz

Airport informations:
Latitude: 41° 45' 40.00" N
Longitude: 059° 49' 36.00" E
Elevation: 272 feet - 83 meters
Operating hours: Remarks
Operating agency: Civil government, landing fees and diplomatic clearance may be required
Timezone: UTC+5
Fuel: Unknown fuel type or whether there is any fuel.

Runway information:
09R/27L - 4921 x 98 feet< - >1500 x 30 meters
09L/27R - 8858 x 138 feet< - >2700 x 42 meters

Recent METARs:
UTAT 170700Z 02008KT 340V050 CAVOK 04/M12 Q1026 R08/CLRD70 NOSIG
UTAT 170800Z 01008KT 340V040 CAVOK 06/M12 Q1025 R08/CLRD70 NOSIG
UTAT 170800Z 01008KT 340V040 CAVOK 06/M12 Q1025 R08/CLRD70 NOSIG

Airport on the map: